createdAt,value
2016-07-18T00:00:35.958Z,0
2016-07-18T00:01:35.975Z,0
2016-07-18T00:02:35.926Z,0
2016-07-18T00:03:35.930Z,0
2016-07-18T00:04:36.107Z,0
2016-07-18T00:05:35.928Z,0
2016-07-18T00:06:35.924Z,0
2016-07-18T00:07:35.962Z,0
2016-07-18T00:08:35.968Z,0
2016-07-18T00:09:36.009Z,0
2016-07-18T00:10:36.075Z,0
2016-07-18T00:11:35.956Z,0
2016-07-18T00:12:36.201Z,0
2016-07-18T00:13:36.738Z,0
2016-07-18T00:14:35.946Z,0
2016-07-18T00:15:35.981Z,0
2016-07-18T00:16:36.855Z,0
2016-07-18T00:17:35.994Z,0
2016-07-18T00:18:35.911Z,0
2016-07-18T00:19:36.690Z,0
2016-07-18T00:20:35.896Z,0
2016-07-18T00:21:35.899Z,0
2016-07-18T00:22:35.980Z,0
2016-07-18T00:23:36.046Z,0
2016-07-18T00:24:35.967Z,0
2016-07-18T00:25:36.210Z,0
2016-07-18T00:26:35.963Z,0
2016-07-18T00:27:35.956Z,0
2016-07-18T00:28:36.196Z,0
2016-07-18T00:29:35.919Z,0
2016-07-18T00:30:35.927Z,0
2016-07-18T00:31:36.239Z,0
2016-07-18T00:32:35.991Z,0
2016-07-18T00:33:35.944Z,0
2016-07-18T00:34:36.157Z,0
2016-07-18T00:35:35.940Z,0
2016-07-18T00:36:36.092Z,0
2016-07-18T00:37:35.957Z,0
2016-07-18T00:38:35.989Z,0
2016-07-18T00:39:36.080Z,0
2016-07-18T00:40:36.406Z,0
2016-07-18T00:41:36.039Z,0
2016-07-18T00:42:35.989Z,0
2016-07-18T00:43:36.028Z,0
2016-07-18T00:44:35.983Z,0
2016-07-18T00:45:35.955Z,0
2016-07-18T00:46:37.301Z,0
2016-07-18T00:47:36.077Z,0
2016-07-18T00:48:36.986Z,0
2016-07-18T00:49:36.290Z,0
2016-07-18T00:50:36.010Z,0
2016-07-18T00:51:36.001Z,0
2016-07-18T00:52:35.999Z,0
2016-07-18T00:53:36.024Z,0
2016-07-18T00:54:36.116Z,0
2016-07-18T00:55:36.624Z,0
2016-07-18T00:56:36.002Z,0
2016-07-18T00:57:36.050Z,0
2016-07-18T00:58:37.098Z,0
2016-07-18T00:59:36.060Z,0
2016-07-18T01:00:36.452Z,0
2016-07-18T01:01:35.944Z,0
2016-07-18T01:02:36.101Z,0
2016-07-18T01:03:35.969Z,0
2016-07-18T01:04:36.385Z,0
2016-07-18T01:05:35.994Z,0
2016-07-18T01:06:35.994Z,0
2016-07-18T01:07:36.019Z,0
2016-07-18T01:08:36.048Z,0
2016-07-18T01:09:35.991Z,0
2016-07-18T01:10:36.209Z,0
2016-07-18T01:11:35.959Z,0
2016-07-18T01:12:36.045Z,0
2016-07-18T01:13:36.174Z,0
2016-07-18T01:14:36.021Z,0
2016-07-18T01:15:35.993Z,0
2016-07-18T01:16:36.274Z,0
2016-07-18T01:17:36.034Z,0
2016-07-18T01:18:36.046Z,0
2016-07-18T01:19:36.060Z,0
2016-07-18T01:20:35.978Z,0
2016-07-18T01:21:35.960Z,0
2016-07-18T01:22:36.064Z,0
2016-07-18T01:23:35.941Z,0
2016-07-18T01:24:36.208Z,0
2016-07-18T01:25:36.120Z,0
2016-07-18T01:26:35.991Z,0
2016-07-18T01:27:35.996Z,0
2016-07-18T01:28:37.075Z,0
2016-07-18T01:29:36.250Z,0
2016-07-18T01:30:35.973Z,0
2016-07-18T01:31:36.556Z,0
2016-07-18T01:32:35.982Z,0
2016-07-18T01:33:35.971Z,0
2016-07-18T01:34:36.233Z,0
2016-07-18T01:35:36.036Z,0
2016-07-18T01:36:37.042Z,0
2016-07-18T01:37:36.078Z,0
2016-07-18T01:38:36.009Z,0
2016-07-18T01:39:36.029Z,0
2016-07-18T01:40:36.532Z,0
2016-07-18T01:41:36.029Z,0
2016-07-18T01:42:36.078Z,0
2016-07-18T01:43:36.114Z,0
2016-07-18T01:44:36.055Z,0
2016-07-18T01:45:36.054Z,0
2016-07-18T01:46:36.017Z,0
2016-07-18T01:47:36.592Z,0
2016-07-18T01:48:36.021Z,0
2016-07-18T01:49:36.512Z,0
2016-07-18T01:50:36.007Z,0
2016-07-18T01:51:36.021Z,0
2016-07-18T01:52:36.410Z,0
2016-07-18T01:53:36.620Z,0
2016-07-18T01:54:36.034Z,0
2016-07-18T01:55:36.070Z,0
2016-07-18T01:56:36.027Z,0
2016-07-18T01:57:36.054Z,0
2016-07-18T01:58:36.559Z,0
2016-07-18T01:59:37.127Z,0
2016-07-18T02:00:36.190Z,0
2016-07-18T02:01:36.475Z,0
2016-07-18T02:02:36.023Z,0
2016-07-18T02:03:36.015Z,0
2016-07-18T02:04:36.893Z,0
2016-07-18T02:05:36.059Z,0
2016-07-18T02:06:36.085Z,0
2016-07-18T02:07:36.178Z,0
2016-07-18T02:08:36.136Z,0
2016-07-18T02:09:36.138Z,0
2016-07-18T02:10:36.616Z,0
2016-07-18T02:11:36.075Z,0
2016-07-18T02:12:36.104Z,0
2016-07-18T02:13:36.402Z,0
2016-07-18T02:14:36.012Z,0
2016-07-18T02:15:36.110Z,0
2016-07-18T02:16:36.504Z,0
2016-07-18T02:17:36.077Z,0
2016-07-18T02:18:36.040Z,0
2016-07-18T02:19:36.687Z,0
2016-07-18T02:20:36.080Z,0
2016-07-18T02:21:36.036Z,0
2016-07-18T02:22:36.301Z,0
2016-07-18T02:23:36.031Z,0
2016-07-18T02:24:36.110Z,0
2016-07-18T02:25:36.084Z,0
2016-07-18T02:26:36.063Z,0
2016-07-18T02:27:36.060Z,0
2016-07-18T02:28:36.312Z,0
2016-07-18T02:29:36.043Z,0
2016-07-18T02:30:36.051Z,0
2016-07-18T02:31:36.185Z,0
2016-07-18T02:32:36.080Z,0
2016-07-18T02:33:36.099Z,0
2016-07-18T02:34:36.348Z,0
2016-07-18T02:35:36.248Z,0
2016-07-18T02:36:36.024Z,0
2016-07-18T02:37:36.084Z,0
2016-07-18T02:38:36.067Z,0
2016-07-18T02:39:36.062Z,0
2016-07-18T02:40:36.550Z,0
2016-07-18T02:41:36.202Z,0
2016-07-18T02:42:36.076Z,0
2016-07-18T02:43:37.193Z,0
2016-07-18T02:44:36.011Z,0
2016-07-18T02:45:36.025Z,0
2016-07-18T02:46:36.045Z,0
2016-07-18T02:47:36.059Z,0
2016-07-18T02:48:36.023Z,0
2016-07-18T02:49:36.521Z,0
2016-07-18T02:50:36.056Z,0
2016-07-18T02:51:36.005Z,0
2016-07-18T02:52:36.524Z,0
2016-07-18T02:53:36.026Z,0
2016-07-18T02:54:36.058Z,0
2016-07-18T02:55:36.986Z,0
2016-07-18T02:56:36.059Z,0
2016-07-18T02:57:36.678Z,0
2016-07-18T02:58:36.401Z,0
2016-07-18T02:59:36.042Z,0
2016-07-18T03:00:36.029Z,0
2016-07-18T03:01:36.085Z,0
2016-07-18T03:02:36.042Z,0
2016-07-18T03:03:36.022Z,0
2016-07-18T03:04:36.634Z,0
2016-07-18T03:05:36.072Z,0
2016-07-18T03:06:36.028Z,0
2016-07-18T03:07:36.387Z,0
2016-07-18T03:08:36.088Z,0
2016-07-18T03:09:36.046Z,0
2016-07-18T03:10:36.258Z,0
2016-07-18T03:11:36.061Z,0
2016-07-18T03:12:36.056Z,0
2016-07-18T03:13:36.352Z,0
2016-07-18T03:14:36.058Z,0
2016-07-18T03:15:36.028Z,0
2016-07-18T03:16:36.358Z,0
2016-07-18T03:17:36.041Z,0
2016-07-18T03:18:36.030Z,0
2016-07-18T03:19:36.324Z,0
2016-07-18T03:20:36.032Z,0
2016-07-18T03:21:36.051Z,0
2016-07-18T03:22:36.415Z,0
2016-07-18T03:23:36.063Z,5
2016-07-18T03:24:36.057Z,5
2016-07-18T03:25:37.320Z,5
2016-07-18T03:26:36.056Z,5
2016-07-18T03:27:36.056Z,5
2016-07-18T03:28:36.087Z,5
2016-07-18T03:29:36.088Z,5
2016-07-18T03:30:36.059Z,5
2016-07-18T03:31:36.118Z,5
2016-07-18T03:32:36.059Z,5
2016-07-18T03:33:36.058Z,10
2016-07-18T03:34:36.671Z,10
2016-07-18T03:35:36.034Z,10
2016-07-18T03:36:36.107Z,10
2016-07-18T03:37:36.109Z,10
2016-07-18T03:38:36.081Z,10
2016-07-18T03:39:36.079Z,15
2016-07-18T03:40:36.062Z,15
2016-07-18T03:41:36.085Z,15
2016-07-18T03:42:36.069Z,15
2016-07-18T03:43:37.261Z,15
2016-07-18T03:44:36.119Z,20
2016-07-18T03:45:36.180Z,20
2016-07-18T03:46:36.375Z,20
2016-07-18T03:47:36.170Z,20
2016-07-18T03:48:36.104Z,20
2016-07-18T03:49:36.329Z,20
2016-07-18T03:50:36.098Z,25
2016-07-18T03:51:36.074Z,25
2016-07-18T03:52:36.065Z,25
2016-07-18T03:53:36.778Z,25
2016-07-18T03:54:36.089Z,30
2016-07-18T03:55:36.077Z,30
2016-07-18T03:56:36.064Z,30
2016-07-18T03:57:36.156Z,30
2016-07-18T03:58:36.780Z,35
2016-07-18T03:59:36.127Z,35
2016-07-18T04:00:36.084Z,35
2016-07-18T04:01:36.395Z,35
2016-07-18T04:02:36.098Z,35
2016-07-18T04:03:36.142Z,30
2016-07-18T04:04:36.115Z,30
2016-07-18T04:05:36.091Z,30
2016-07-18T04:06:36.144Z,35
2016-07-18T04:07:36.310Z,35
2016-07-18T04:08:36.186Z,40
2016-07-18T04:09:36.091Z,40
2016-07-18T04:10:46.053Z,40
2016-07-18T04:11:36.120Z,45
2016-07-18T04:12:36.181Z,45
2016-07-18T04:13:36.560Z,50
2016-07-18T04:14:36.121Z,55
2016-07-18T04:15:36.132Z,55
2016-07-18T04:16:37.938Z,60
2016-07-18T04:17:36.105Z,65
2016-07-18T04:18:36.119Z,65
2016-07-18T04:19:36.089Z,65
2016-07-18T04:20:36.105Z,70
2016-07-18T04:21:36.049Z,85
2016-07-18T04:22:36.481Z,80
2016-07-18T04:23:36.146Z,80
2016-07-18T04:24:36.107Z,90
2016-07-18T04:25:36.116Z,105
2016-07-18T04:26:36.090Z,100
2016-07-18T04:27:36.122Z,85
2016-07-18T04:28:36.113Z,70
2016-07-18T04:29:36.123Z,75
2016-07-18T04:30:36.097Z,85
2016-07-18T04:31:36.236Z,85
2016-07-18T04:32:36.093Z,85
2016-07-18T04:33:36.332Z,85
2016-07-18T04:34:36.536Z,80
2016-07-18T04:35:36.103Z,80
2016-07-18T04:36:36.114Z,75
2016-07-18T04:37:36.380Z,75
2016-07-18T04:38:36.183Z,80
2016-07-18T04:39:36.122Z,85
2016-07-18T04:40:36.466Z,85
2016-07-18T04:41:36.092Z,100
2016-07-18T04:42:36.155Z,105
2016-07-18T04:43:36.232Z,115
2016-07-18T04:44:36.153Z,120
2016-07-18T04:45:36.202Z,130
2016-07-18T04:46:36.157Z,145
2016-07-18T04:47:36.229Z,165
2016-07-18T04:48:36.134Z,175
2016-07-18T04:49:36.108Z,190
2016-07-18T04:50:36.152Z,195
2016-07-18T04:51:36.132Z,200
2016-07-18T04:52:36.175Z,210
2016-07-18T04:53:36.135Z,210
2016-07-18T04:54:36.118Z,225
2016-07-18T04:55:37.584Z,220
2016-07-18T04:56:36.159Z,215
2016-07-18T04:57:36.133Z,195
2016-07-18T04:58:37.293Z,180
2016-07-18T04:59:36.121Z,160
2016-07-18T05:00:36.123Z,165
2016-07-18T05:01:36.120Z,165
2016-07-18T05:02:36.152Z,160
2016-07-18T05:03:36.120Z,140
2016-07-18T05:04:36.138Z,140
2016-07-18T05:05:36.156Z,140
2016-07-18T05:06:36.158Z,140
2016-07-18T05:07:36.323Z,140
2016-07-18T05:08:36.169Z,135
2016-07-18T05:09:36.176Z,135
2016-07-18T05:10:36.183Z,135
2016-07-18T05:11:36.184Z,135
2016-07-18T05:12:36.189Z,140
2016-07-18T05:13:36.306Z,140
2016-07-18T05:14:36.153Z,135
2016-07-18T05:15:36.131Z,135
2016-07-18T05:16:36.527Z,135
2016-07-18T05:17:36.154Z,130
2016-07-18T05:18:36.189Z,130
2016-07-18T05:19:36.285Z,130
2016-07-18T05:20:36.251Z,130
2016-07-18T05:21:36.270Z,130
2016-07-18T05:22:36.216Z,140
2016-07-18T05:23:36.243Z,140
2016-07-18T05:24:36.187Z,145
2016-07-18T05:25:36.211Z,150
2016-07-18T05:26:36.255Z,160
2016-07-18T05:27:36.188Z,160
2016-07-18T05:28:36.223Z,165
2016-07-18T05:29:36.154Z,170
2016-07-18T05:30:36.202Z,175
2016-07-18T05:31:36.189Z,180
2016-07-18T05:32:36.214Z,180
2016-07-18T05:33:36.153Z,185
2016-07-18T05:34:36.184Z,185
2016-07-18T05:35:36.188Z,190
2016-07-18T05:36:36.168Z,190
2016-07-18T05:37:36.162Z,190
2016-07-18T05:38:36.244Z,195
2016-07-18T05:39:36.188Z,195
2016-07-18T05:40:36.249Z,195
2016-07-18T05:41:36.212Z,195
2016-07-18T05:42:36.182Z,195
2016-07-18T05:43:36.175Z,195
2016-07-18T05:44:36.192Z,195
2016-07-18T05:45:36.214Z,195
2016-07-18T05:46:36.181Z,195
2016-07-18T05:47:36.213Z,190
2016-07-18T05:48:36.197Z,180
2016-07-18T05:49:36.184Z,175
2016-07-18T05:50:36.224Z,165
2016-07-18T05:51:36.159Z,150
2016-07-18T05:52:36.178Z,145
2016-07-18T05:53:36.217Z,140
2016-07-18T05:54:36.208Z,140
2016-07-18T05:55:36.221Z,150
2016-07-18T05:56:36.243Z,160
2016-07-18T05:57:36.221Z,160
2016-07-18T05:58:36.248Z,160
2016-07-18T05:59:36.226Z,155
2016-07-18T06:00:36.215Z,165
2016-07-18T06:01:36.207Z,175
2016-07-18T06:02:36.179Z,175
2016-07-18T06:03:36.217Z,180
2016-07-18T06:04:36.222Z,185
2016-07-18T06:05:36.292Z,190
2016-07-18T06:06:36.256Z,200
2016-07-18T06:07:36.262Z,205
2016-07-18T06:08:36.249Z,200
2016-07-18T06:09:36.275Z,205
2016-07-18T06:10:36.903Z,210
2016-07-18T06:11:36.256Z,215
2016-07-18T06:12:36.227Z,215
2016-07-18T06:13:36.198Z,230
2016-07-18T06:14:36.249Z,240
2016-07-18T06:15:36.324Z,240
2016-07-18T06:16:36.254Z,260
2016-07-18T06:17:36.969Z,285
2016-07-18T06:18:36.251Z,290
2016-07-18T06:19:36.299Z,285
2016-07-18T06:20:36.966Z,330
2016-07-18T06:21:36.247Z,315
2016-07-18T06:22:36.319Z,290
2016-07-18T06:23:36.252Z,280
2016-07-18T06:24:36.336Z,270
2016-07-18T06:25:36.280Z,275
2016-07-18T06:26:36.308Z,285
2016-07-18T06:27:36.236Z,305
2016-07-18T06:28:36.360Z,330
2016-07-18T06:29:36.263Z,330
2016-07-18T06:30:36.316Z,325
2016-07-18T06:31:36.276Z,305
2016-07-18T06:32:36.276Z,305
2016-07-18T06:33:36.276Z,295
2016-07-18T06:34:36.548Z,290
2016-07-18T06:35:36.256Z,285
2016-07-18T06:36:36.341Z,285
2016-07-18T06:37:36.281Z,280
2016-07-18T06:38:36.282Z,275
2016-07-18T06:39:36.723Z,275
2016-07-18T06:40:36.298Z,275
2016-07-18T06:41:36.515Z,275
2016-07-18T06:42:36.620Z,275
2016-07-18T06:43:37.308Z,270
2016-07-18T06:44:36.819Z,275
2016-07-18T06:45:36.418Z,335
2016-07-18T06:46:36.816Z,470
2016-07-18T06:47:36.400Z,625
2016-07-18T06:48:36.907Z,785
2016-07-18T06:49:37.217Z,940
2016-07-18T06:50:36.818Z,1055
2016-07-18T06:51:37.129Z,1100
2016-07-18T06:52:37.079Z,1080
2016-07-18T06:53:36.662Z,1070
2016-07-18T06:54:36.313Z,1035
2016-07-18T06:55:37.273Z,1035
2016-07-18T06:56:36.449Z,1040
2016-07-18T06:57:36.413Z,1000
2016-07-18T06:58:36.337Z,1025
2016-07-18T06:59:36.347Z,1030
2016-07-18T07:00:36.398Z,1075
2016-07-18T07:01:36.528Z,1005
2016-07-18T07:02:36.594Z,1095
2016-07-18T07:03:36.294Z,1065
2016-07-18T07:04:37.064Z,1055
2016-07-18T07:05:36.368Z,1035
2016-07-18T07:06:36.426Z,1020
2016-07-18T07:07:36.398Z,1055
2016-07-18T07:08:36.376Z,1095
2016-07-18T07:09:36.291Z,1125
2016-07-18T07:10:36.390Z,1125
2016-07-18T07:11:36.370Z,1190
2016-07-18T07:12:36.306Z,1185
2016-07-18T07:13:36.969Z,1180
2016-07-18T07:14:36.985Z,1150
2016-07-18T07:15:36.310Z,1175
2016-07-18T07:16:36.387Z,1195
2016-07-18T07:17:36.442Z,1240
2016-07-18T07:18:36.400Z,1200
2016-07-18T07:19:36.395Z,1175
2016-07-18T07:20:36.280Z,1155
2016-07-18T07:21:36.357Z,1230
2016-07-18T07:22:36.379Z,1240
2016-07-18T07:23:36.355Z,1050
2016-07-18T07:24:36.419Z,1110
2016-07-18T07:25:36.347Z,470
2016-07-18T07:26:36.329Z,920
2016-07-18T07:27:36.370Z,490
2016-07-18T07:28:36.329Z,825
2016-07-18T07:29:36.335Z,1030
2016-07-18T07:30:36.399Z,650
2016-07-18T07:31:36.407Z,1250
2016-07-18T07:32:36.457Z,1270
2016-07-18T07:33:36.422Z,1295
2016-07-18T07:34:36.428Z,1295
2016-07-18T07:35:36.459Z,1280
2016-07-18T07:36:36.432Z,1260
2016-07-18T07:37:36.373Z,1265
2016-07-18T07:38:36.366Z,1325
2016-07-18T07:39:37.127Z,1355
2016-07-18T07:40:37.392Z,1375
2016-07-18T07:41:36.766Z,1290
2016-07-18T07:42:36.344Z,1265
2016-07-18T07:43:36.700Z,1285
2016-07-18T07:44:36.310Z,1310
2016-07-18T07:45:37.691Z,1230
2016-07-18T07:46:36.884Z,1270
2016-07-18T07:47:37.638Z,1275
2016-07-18T07:48:37.144Z,1300
2016-07-18T07:49:36.412Z,1085
2016-07-18T07:50:36.987Z,1210
2016-07-18T07:51:36.575Z,1440
2016-07-18T07:52:36.451Z,1125
2016-07-18T07:53:36.363Z,695
2016-07-18T07:54:36.374Z,435
2016-07-18T07:55:37.092Z,390
2016-07-18T07:56:37.181Z,335
2016-07-18T07:57:36.487Z,330
2016-07-18T07:58:36.465Z,365
2016-07-18T07:59:36.406Z,380
2016-07-18T08:00:36.497Z,330
2016-07-18T08:01:36.402Z,305
2016-07-18T08:02:36.394Z,275
2016-07-18T08:03:37.422Z,315
2016-07-18T08:04:36.480Z,360
2016-07-18T08:05:36.430Z,310
2016-07-18T08:06:36.437Z,270
2016-07-18T08:07:36.519Z,345
2016-07-18T08:08:36.405Z,390
2016-07-18T08:09:36.409Z,380
2016-07-18T08:10:36.418Z,425
2016-07-18T08:11:36.454Z,480
2016-07-18T08:12:36.502Z,455
2016-07-18T08:13:36.366Z,410
2016-07-18T08:14:36.492Z,415
2016-07-18T08:15:36.370Z,385
2016-07-18T08:16:36.446Z,385
2016-07-18T08:17:36.403Z,450
2016-07-18T08:18:36.385Z,460
2016-07-18T08:19:36.587Z,480
2016-07-18T08:20:36.400Z,425
2016-07-18T08:21:36.539Z,440
2016-07-18T08:22:37.689Z,470
2016-07-18T08:23:37.257Z,485
2016-07-18T08:24:36.590Z,395
2016-07-18T08:25:36.463Z,380
2016-07-18T08:26:36.434Z,340
2016-07-18T08:27:37.288Z,350
2016-07-18T08:28:36.574Z,350
2016-07-18T08:29:36.464Z,335
2016-07-18T08:30:36.482Z,310
2016-07-18T08:31:36.640Z,320
2016-07-18T08:32:36.545Z,360
2016-07-18T08:33:36.451Z,405
2016-07-18T08:34:36.840Z,395
2016-07-18T08:35:36.546Z,335
2016-07-18T08:36:36.401Z,325
2016-07-18T08:37:36.417Z,405
2016-07-18T08:38:36.459Z,460
2016-07-18T08:39:36.437Z,425
2016-07-18T08:40:36.499Z,345
2016-07-18T08:41:36.535Z,345
2016-07-18T08:42:37.768Z,340
2016-07-18T08:43:36.973Z,355
2016-07-18T08:44:36.423Z,355
2016-07-18T08:45:36.584Z,385
2016-07-18T08:46:37.183Z,420
2016-07-18T08:47:36.518Z,410
2016-07-18T08:48:36.516Z,430
2016-07-18T08:49:36.436Z,450
2016-07-18T08:50:36.428Z,435
2016-07-18T08:51:36.388Z,405
2016-07-18T08:52:36.460Z,405
2016-07-18T08:53:36.462Z,400
2016-07-18T08:54:36.441Z,360
2016-07-18T08:55:36.438Z,340
2016-07-18T08:56:36.439Z,380
2016-07-18T08:57:36.695Z,380
2016-07-18T08:58:36.454Z,355
2016-07-18T08:59:36.445Z,330
2016-07-18T09:00:36.551Z,345
2016-07-18T09:01:36.705Z,335
2016-07-18T09:02:36.521Z,355
2016-07-18T09:03:36.530Z,355
2016-07-18T09:04:36.579Z,355
2016-07-18T09:05:36.467Z,360
2016-07-18T09:06:36.419Z,370
2016-07-18T09:07:36.496Z,375
2016-07-18T09:08:36.560Z,365
2016-07-18T09:09:36.532Z,355
2016-07-18T09:10:36.552Z,365
2016-07-18T09:11:36.518Z,340
2016-07-18T09:12:36.685Z,315
2016-07-18T09:13:36.558Z,305
2016-07-18T09:14:36.485Z,300
2016-07-18T09:15:36.436Z,295
2016-07-18T09:16:37.572Z,295
2016-07-18T09:17:36.597Z,280
2016-07-18T09:18:36.662Z,265
2016-07-18T09:19:36.436Z,265
2016-07-18T09:20:37.726Z,270
2016-07-18T09:21:36.532Z,275
2016-07-18T09:22:36.531Z,285
2016-07-18T09:23:36.777Z,275
2016-07-18T09:24:36.553Z,245
2016-07-18T09:25:37.089Z,240
2016-07-18T09:26:36.924Z,245
2016-07-18T09:27:36.489Z,240
2016-07-18T09:28:36.494Z,245
2016-07-18T09:29:36.490Z,260
2016-07-18T09:30:36.579Z,245
2016-07-18T09:31:36.630Z,245
2016-07-18T09:32:36.521Z,230
2016-07-18T09:33:36.514Z,240
2016-07-18T09:34:36.524Z,230
2016-07-18T09:35:36.529Z,215
2016-07-18T09:36:36.681Z,215
2016-07-18T09:37:37.546Z,210
2016-07-18T09:38:36.459Z,205
2016-07-18T09:39:36.478Z,205
2016-07-18T09:40:36.473Z,205
2016-07-18T09:41:37.152Z,205
2016-07-18T09:42:37.143Z,210
2016-07-18T09:43:36.455Z,210
2016-07-18T09:44:36.496Z,210
2016-07-18T09:45:36.765Z,210
2016-07-18T09:46:36.826Z,215
2016-07-18T09:47:36.499Z,215
2016-07-18T09:48:36.498Z,210
2016-07-18T09:49:36.483Z,210
2016-07-18T09:50:36.516Z,205
2016-07-18T09:51:36.916Z,205
2016-07-18T09:52:36.927Z,205
2016-07-18T09:53:36.459Z,200
2016-07-18T09:54:37.553Z,200
2016-07-18T09:55:36.561Z,195
2016-07-18T09:56:37.261Z,175
2016-07-18T09:57:36.589Z,200
2016-07-18T09:58:36.614Z,195
2016-07-18T09:59:36.569Z,195
2016-07-18T10:00:37.145Z,200
2016-07-18T10:01:36.498Z,200
2016-07-18T10:02:36.504Z,205
2016-07-18T10:03:36.529Z,210
2016-07-18T10:04:37.169Z,205
2016-07-18T10:05:36.590Z,205
2016-07-18T10:06:37.471Z,205
2016-07-18T10:07:36.672Z,210
2016-07-18T10:08:36.682Z,210
2016-07-18T10:09:36.529Z,210
2016-07-18T10:10:36.541Z,210
2016-07-18T10:11:36.553Z,215
2016-07-18T10:12:36.649Z,250
2016-07-18T10:13:37.371Z,235
2016-07-18T10:14:36.531Z,245
2016-07-18T10:15:36.616Z,290
2016-07-18T10:16:36.853Z,290
2016-07-18T10:17:36.609Z,260
2016-07-18T10:18:36.532Z,230
2016-07-18T10:19:36.741Z,220
2016-07-18T10:20:36.748Z,250
2016-07-18T10:21:37.102Z,300
2016-07-18T10:22:37.707Z,280
2016-07-18T10:23:37.233Z,265
2016-07-18T10:24:36.569Z,290
2016-07-18T10:25:36.508Z,325
2016-07-18T10:26:36.598Z,305
2016-07-18T10:27:36.606Z,300
2016-07-18T10:28:36.504Z,270
2016-07-18T10:29:36.547Z,260
2016-07-18T10:30:36.572Z,255
2016-07-18T10:31:37.220Z,250
2016-07-18T10:32:36.522Z,245
2016-07-18T10:33:36.862Z,255
2016-07-18T10:34:36.683Z,260
2016-07-18T10:35:36.543Z,275
2016-07-18T10:36:36.651Z,310
2016-07-18T10:37:36.603Z,330
2016-07-18T10:38:36.548Z,360
2016-07-18T10:39:37.551Z,375
2016-07-18T10:40:36.533Z,345
2016-07-18T10:41:37.197Z,335
2016-07-18T10:42:37.127Z,340
2016-07-18T10:43:36.560Z,325
2016-07-18T10:44:36.555Z,335
2016-07-18T10:45:36.500Z,405
2016-07-18T10:46:36.573Z,415
2016-07-18T10:47:36.622Z,355
2016-07-18T10:48:36.591Z,345
2016-07-18T10:49:36.545Z,355
2016-07-18T10:50:37.255Z,320
2016-07-18T10:51:37.161Z,335
2016-07-18T10:52:37.156Z,365
2016-07-18T10:53:36.938Z,400
2016-07-18T10:54:36.537Z,395
2016-07-18T10:55:36.650Z,405
2016-07-18T10:56:36.612Z,405
2016-07-18T10:57:36.585Z,400
2016-07-18T10:58:36.666Z,390
2016-07-18T10:59:36.537Z,385
2016-07-18T11:00:37.311Z,335
2016-07-18T11:01:36.573Z,300
2016-07-18T11:02:36.623Z,290
2016-07-18T11:03:36.564Z,285
2016-07-18T11:04:36.543Z,255
2016-07-18T11:05:36.630Z,265
2016-07-18T11:06:36.694Z,255
2016-07-18T11:07:36.898Z,260
2016-07-18T11:08:36.593Z,275
2016-07-18T11:09:36.539Z,295
2016-07-18T11:10:37.351Z,285
2016-07-18T11:11:36.846Z,285
2016-07-18T11:12:36.592Z,300
2016-07-18T11:13:36.742Z,310
2016-07-18T11:14:37.218Z,300
2016-07-18T11:15:36.760Z,315
2016-07-18T11:16:36.797Z,335
2016-07-18T11:17:37.178Z,330
2016-07-18T11:18:36.743Z,315
2016-07-18T11:19:36.663Z,315
2016-07-18T11:20:36.680Z,340
2016-07-18T11:21:36.713Z,350
2016-07-18T11:22:36.607Z,345
2016-07-18T11:23:37.575Z,355
2016-07-18T11:24:37.646Z,340
2016-07-18T11:25:37.203Z,300
2016-07-18T11:26:37.632Z,275
2016-07-18T11:27:36.694Z,260
2016-07-18T11:28:36.844Z,255
2016-07-18T11:29:36.688Z,260
2016-07-18T11:30:36.626Z,305
2016-07-18T11:31:37.022Z,315
2016-07-18T11:32:36.622Z,300
2016-07-18T11:33:36.584Z,255
2016-07-18T11:34:36.684Z,265
2016-07-18T11:35:36.594Z,255
2016-07-18T11:36:37.402Z,275
2016-07-18T11:37:36.602Z,270
2016-07-18T11:38:36.592Z,280
2016-07-18T11:39:36.647Z,325
2016-07-18T11:40:36.624Z,340
2016-07-18T11:41:36.690Z,355
2016-07-18T11:42:36.607Z,365
2016-07-18T11:43:36.622Z,370
2016-07-18T11:44:36.627Z,375
2016-07-18T11:45:37.247Z,380
2016-07-18T11:46:36.655Z,365
2016-07-18T11:47:36.635Z,365
2016-07-18T11:48:36.779Z,375
2016-07-18T11:49:37.366Z,365
2016-07-18T11:50:36.798Z,350
2016-07-18T11:51:36.649Z,310
2016-07-18T11:52:36.817Z,275
2016-07-18T11:53:37.509Z,275
2016-07-18T11:54:36.837Z,300
2016-07-18T11:55:36.690Z,310
2016-07-18T11:56:36.842Z,310
2016-07-18T11:57:37.037Z,310
2016-07-18T11:58:36.752Z,310
2016-07-18T11:59:36.709Z,315
2016-07-18T12:00:36.716Z,340
2016-07-18T12:01:36.782Z,345
2016-07-18T12:02:36.814Z,320
2016-07-18T12:03:36.744Z,315
2016-07-18T12:04:36.832Z,305
2016-07-18T12:05:36.685Z,280
2016-07-18T12:06:37.596Z,260
2016-07-18T12:07:37.660Z,265
2016-07-18T12:08:36.700Z,280
2016-07-18T12:09:36.759Z,295
2016-07-18T12:10:36.724Z,290
2016-07-18T12:11:36.671Z,280
2016-07-18T12:12:36.660Z,285
2016-07-18T12:13:36.670Z,300
2016-07-18T12:14:37.276Z,280
2016-07-18T12:15:37.663Z,265
2016-07-18T12:16:36.828Z,255
2016-07-18T12:17:36.655Z,250
2016-07-18T12:18:36.824Z,240
2016-07-18T12:19:37.308Z,245
2016-07-18T12:20:37.478Z,280
2016-07-18T12:21:37.755Z,285
2016-07-18T12:22:36.858Z,275
2016-07-18T12:23:36.895Z,290
2016-07-18T12:24:36.800Z,285
2016-07-18T12:25:36.700Z,275
2016-07-18T12:26:36.858Z,255
2016-07-18T12:27:37.055Z,245
2016-07-18T12:28:37.263Z,245
2016-07-18T12:29:36.821Z,235
2016-07-18T12:30:37.454Z,230
2016-07-18T12:31:36.753Z,210
2016-07-18T12:32:36.675Z,225
2016-07-18T12:33:36.795Z,265
2016-07-18T12:34:36.707Z,260
2016-07-18T12:35:36.716Z,250
2016-07-18T12:36:36.706Z,230
2016-07-18T12:37:36.749Z,215
2016-07-18T12:38:36.683Z,205
2016-07-18T12:39:36.658Z,205
2016-07-18T12:40:36.836Z,205
2016-07-18T12:41:36.768Z,200
2016-07-18T12:42:36.760Z,180
2016-07-18T12:43:36.879Z,200
2016-07-18T12:44:36.821Z,200
2016-07-18T12:45:36.690Z,180
2016-07-18T12:46:36.835Z,165
2016-07-18T12:47:37.194Z,150
2016-07-18T12:48:36.784Z,145
2016-07-18T12:49:36.717Z,165
2016-07-18T12:50:36.728Z,165
2016-07-18T12:51:37.376Z,160
2016-07-18T12:52:36.757Z,160
2016-07-18T12:53:36.959Z,160
2016-07-18T12:54:36.783Z,160
2016-07-18T12:55:36.778Z,170
2016-07-18T12:56:37.350Z,195
2016-07-18T12:57:36.747Z,165
2016-07-18T12:58:37.122Z,160
2016-07-18T12:59:36.687Z,165
2016-07-18T13:00:36.723Z,170
2016-07-18T13:01:37.780Z,165
2016-07-18T13:02:36.747Z,160
2016-07-18T13:03:36.793Z,160
2016-07-18T13:04:36.710Z,160
2016-07-18T13:05:36.695Z,155
2016-07-18T13:06:36.691Z,160
2016-07-18T13:07:37.164Z,145
2016-07-18T13:08:37.435Z,150
2016-07-18T13:09:36.698Z,165
2016-07-18T13:10:36.743Z,160
2016-07-18T13:11:36.769Z,160
2016-07-18T13:12:36.715Z,160
2016-07-18T13:13:36.693Z,155
2016-07-18T13:14:36.996Z,145
2016-07-18T13:15:36.793Z,155
2016-07-18T13:16:36.721Z,165
2016-07-18T13:17:37.875Z,170
2016-07-18T13:18:36.797Z,170
2016-07-18T13:19:36.749Z,170
2016-07-18T13:20:36.781Z,165
2016-07-18T13:21:37.649Z,160
2016-07-18T13:22:36.667Z,155
2016-07-18T13:23:37.556Z,155
2016-07-18T13:24:36.811Z,155
2016-07-18T13:25:36.701Z,155
2016-07-18T13:26:36.825Z,155
2016-07-18T13:27:36.755Z,155
2016-07-18T13:28:37.271Z,155
2016-07-18T13:29:36.759Z,155
2016-07-18T13:30:36.775Z,150
2016-07-18T13:31:36.758Z,155
2016-07-18T13:32:36.796Z,155
2016-07-18T13:33:37.000Z,155
2016-07-18T13:34:36.750Z,160
2016-07-18T13:35:37.438Z,155
2016-07-18T13:36:36.717Z,155
2016-07-18T13:37:36.782Z,155
2016-07-18T13:38:36.777Z,155
2016-07-18T13:39:36.940Z,160
2016-07-18T13:40:37.600Z,155
2016-07-18T13:41:36.766Z,140
2016-07-18T13:42:37.052Z,140
2016-07-18T13:43:36.753Z,150
2016-07-18T13:44:36.849Z,155
2016-07-18T13:45:36.940Z,160
2016-07-18T13:46:36.863Z,165
2016-07-18T13:47:37.473Z,165
2016-07-18T13:48:37.312Z,170
2016-07-18T13:49:36.784Z,170
2016-07-18T13:50:37.782Z,180
2016-07-18T13:51:36.964Z,190
2016-07-18T13:52:36.753Z,200
2016-07-18T13:53:37.012Z,200
2016-07-18T13:54:36.855Z,195
2016-07-18T13:55:36.722Z,190
2016-07-18T13:56:36.737Z,185
2016-07-18T13:57:36.707Z,180
2016-07-18T13:58:36.754Z,175
2016-07-18T13:59:36.761Z,170
2016-07-18T14:00:36.775Z,155
2016-07-18T14:01:36.774Z,155